createdAt,value
2022-11-12T00:13:19.145Z,5.30
2022-11-12T00:43:24.916Z,5.11
2022-11-12T01:13:29.028Z,4.90
2022-11-12T01:43:33.322Z,4.76
2022-11-12T02:13:54.883Z,4.35
2022-11-12T02:43:58.987Z,4.37
2022-11-12T04:48:04.698Z,3.75
2022-11-12T05:18:08.752Z,4.13
2022-11-12T05:48:12.796Z,4.21
2022-11-12T06:18:16.859Z,4.43
2022-11-12T06:48:21.101Z,4.57
2022-11-12T07:18:25.695Z,4.73
2022-11-12T07:48:32.096Z,4.86
2022-11-12T08:18:36.756Z,4.83
2022-11-12T08:48:41.184Z,5.21
2022-11-12T09:18:45.219Z,6.19
2022-11-12T09:48:54.978Z,6.90
2022-11-12T10:19:17.767Z,6.92
2022-11-12T10:49:26.624Z,8.12
2022-11-12T11:19:35.222Z,7.86
2022-11-12T11:50:00.320Z,8.30
2022-11-12T12:20:15.694Z,9.76
2022-11-12T12:50:21.837Z,10.97
2022-11-12T13:20:38.284Z,11.66
2022-11-12T13:50:42.524Z,11.44
2022-11-12T14:20:46.669Z,10.05
2022-11-12T14:50:55.387Z,9.10
2022-11-12T15:21:13.278Z,8.24
2022-11-12T15:51:18.247Z,7.69
2022-11-12T16:21:22.317Z,7.18
2022-11-12T16:51:26.430Z,6.81
2022-11-12T17:21:30.627Z,6.56
2022-11-12T17:51:34.694Z,6.34
2022-11-12T18:21:40.007Z,6.32
2022-11-12T18:51:44.601Z,6.34
2022-11-12T19:21:49.318Z,6.21
2022-11-12T19:51:53.895Z,5.87
2022-11-12T20:21:57.958Z,5.63
2022-11-12T20:52:02.104Z,6.01
2022-11-12T21:22:06.134Z,6.16
2022-11-12T21:52:12.677Z,6.20
2022-11-12T22:22:16.859Z,6.15
2022-11-12T22:52:21.016Z,6.02
2022-11-12T23:22:25.130Z,5.77
2022-11-12T23:52:29.211Z,5.58
